createdAt,value
2019-01-21T04:02:17.622Z,60.30
2019-01-21T04:05:09.845Z,62.40
2019-01-21T04:08:17.154Z,62.60
2019-01-21T04:11:24.361Z,60.03
2019-01-21T04:14:31.619Z,55.97
2019-01-21T04:17:38.834Z,55.13
2019-01-21T04:20:46.071Z,61.83
2019-01-21T04:23:38.639Z,56.70
2019-01-21T04:26:45.882Z,59.10
2019-01-21T04:29:44.613Z,54.20
2019-01-21T04:32:51.842Z,65.87
2019-01-21T04:35:44.350Z,56.90
2019-01-21T04:38:51.599Z,61.30
2019-01-21T04:41:58.808Z,59.20
2019-01-21T04:45:06.042Z,56.10
2019-01-21T04:48:13.260Z,57.97
2019-01-21T04:51:20.565Z,56.63
2019-01-21T04:54:27.808Z,56.93
2019-01-21T04:57:35.063Z,55.60
2019-01-21T05:00:42.258Z,59.40
2019-01-21T05:03:22.874Z,56.70
2019-01-21T05:06:26.856Z,55.03
2019-01-21T05:09:34.086Z,53.10
2019-01-21T05:12:41.304Z,63.27
2019-01-21T05:15:48.530Z,60.00
2019-01-21T05:18:55.762Z,61.63
2019-01-21T05:22:02.969Z,60.80
2019-01-21T05:25:10.202Z,57.43
2019-01-21T05:28:17.430Z,59.30
2019-01-21T05:31:24.675Z,54.67
2019-01-21T05:34:31.878Z,51.93
2019-01-21T05:37:39.115Z,58.87
2019-01-21T05:40:46.366Z,60.47
2019-01-21T05:43:53.574Z,55.30
2019-01-21T05:46:47.503Z,60.67
2019-01-21T05:49:54.711Z,59.07
2019-01-21T05:53:01.937Z,63.83
2019-01-21T05:56:09.163Z,60.37
2019-01-21T05:59:16.395Z,56.63
2019-01-21T06:02:23.627Z,58.10
2019-01-21T06:05:30.832Z,58.63
2019-01-21T06:08:31.886Z,57.10
2019-01-21T06:11:22.757Z,52.30
2019-01-21T06:14:29.981Z,57.17
2019-01-21T06:17:37.186Z,58.70
2019-01-21T06:20:44.415Z,63.17
2019-01-21T06:23:51.659Z,61.13
2019-01-21T06:26:58.870Z,58.83
2019-01-21T06:30:06.094Z,61.60
2019-01-21T06:33:13.307Z,57.10
2019-01-21T06:36:20.530Z,61.33
2019-01-21T06:39:01.035Z,58.67
2019-01-21T06:41:41.655Z,55.60
2019-01-21T06:44:42.600Z,60.03
2019-01-21T06:47:49.846Z,58.13
2019-01-21T06:50:57.049Z,62.00
2019-01-21T06:54:04.321Z,60.10
2019-01-21T06:57:11.603Z,52.83
2019-01-21T07:00:18.806Z,57.57
2019-01-21T07:03:26.030Z,63.87
2019-01-21T07:06:18.826Z,59.23
2019-01-21T07:09:26.059Z,58.10
2019-01-21T07:12:16.921Z,58.00
2019-01-21T07:15:24.150Z,58.07
2019-01-21T07:18:31.358Z,60.77
2019-01-21T07:21:38.587Z,60.57
2019-01-21T07:24:45.811Z,56.83
2019-01-21T07:27:53.015Z,62.97
2019-01-21T07:31:00.242Z,55.53
2019-01-21T07:34:07.474Z,60.13
2019-01-21T07:37:14.722Z,62.47
2019-01-21T07:40:06.256Z,64.37
2019-01-21T07:42:46.714Z,57.97
2019-01-21T07:45:34.686Z,61.47
2019-01-21T07:48:41.929Z,59.73
2019-01-21T07:51:35.960Z,60.03
2019-01-21T07:54:43.156Z,61.57
2019-01-21T07:57:50.377Z,58.27
2019-01-21T08:00:57.582Z,60.80
2019-01-21T08:04:04.809Z,57.37
2019-01-21T08:07:12.034Z,60.43
2019-01-21T08:10:19.259Z,59.13
2019-01-21T08:13:26.474Z,62.97
2019-01-21T08:16:33.691Z,56.07
2019-01-21T08:19:28.354Z,54.03
2019-01-21T08:22:35.555Z,56.60
2019-01-21T08:25:42.778Z,52.43
2019-01-21T08:28:49.983Z,53.07
2019-01-21T08:31:57.237Z,56.03
2019-01-21T08:35:04.446Z,53.03
2019-01-21T08:38:11.666Z,49.37
2019-01-21T08:41:18.901Z,47.70
2019-01-21T08:44:05.821Z,44.83
2019-01-21T08:47:13.037Z,48.17
2019-01-21T08:50:20.239Z,44.10
2019-01-21T08:53:11.878Z,48.13
2019-01-21T08:56:12.285Z,42.50
2019-01-21T08:59:19.517Z,49.80
2019-01-21T09:02:26.738Z,43.40
2019-01-21T09:05:33.938Z,46.37
2019-01-21T09:08:41.162Z,46.40
2019-01-21T09:11:48.362Z,43.50
2019-01-21T09:14:55.586Z,44.53
2019-01-21T09:18:02.787Z,42.17
2019-01-21T09:21:10.012Z,42.43
2019-01-21T09:24:17.238Z,42.47
2019-01-21T09:27:24.438Z,36.87
2019-01-21T09:30:31.686Z,38.20
2019-01-21T09:33:38.891Z,37.33
2019-01-21T09:36:46.114Z,32.50
2019-01-21T09:39:53.578Z,31.13
2019-01-21T09:43:00.826Z,31.33
2019-01-21T09:45:49.885Z,31.93
2019-01-21T09:48:37.235Z,32.43
2019-01-21T09:51:25.505Z,30.17
2019-01-21T09:54:13.454Z,30.17
2019-01-21T09:57:01.697Z,31.07
2019-01-21T10:00:08.934Z,30.10
2019-01-21T10:02:57.481Z,29.93
2019-01-21T10:05:45.449Z,29.17
2019-01-21T10:08:36.302Z,29.17
2019-01-21T10:11:43.555Z,27.60
2019-01-21T10:14:36.669Z,28.83
2019-01-21T10:17:43.902Z,26.37
2019-01-21T10:20:51.134Z,29.67
2019-01-21T10:23:58.364Z,27.47
2019-01-21T10:27:05.566Z,26.40
2019-01-21T10:30:12.803Z,31.87
2019-01-21T10:33:20.037Z,28.00
2019-01-21T10:36:27.262Z,28.77
2019-01-21T10:39:20.554Z,27.63
2019-01-21T10:42:27.779Z,28.73
2019-01-21T10:45:31.278Z,30.30
2019-01-21T10:48:38.516Z,30.40
2019-01-21T10:51:45.770Z,31.97
2019-01-21T10:54:52.976Z,29.30
2019-01-21T10:58:00.246Z,28.37
2019-01-21T11:01:07.505Z,28.23
2019-01-21T11:04:14.715Z,28.77
2019-01-21T11:07:21.933Z,27.03
2019-01-21T11:10:29.138Z,29.20
2019-01-21T11:13:36.378Z,29.27
2019-01-21T11:16:43.606Z,28.70
2019-01-21T11:19:43.061Z,31.83
2019-01-21T11:22:50.298Z,32.23
2019-01-21T11:25:57.502Z,33.27
2019-01-21T11:29:04.746Z,29.40
2019-01-21T11:32:11.974Z,31.37
2019-01-21T11:35:19.202Z,33.33
2019-01-21T11:38:26.410Z,31.90
2019-01-21T11:41:33.658Z,30.23
2019-01-21T11:44:40.886Z,28.87
2019-01-21T11:47:21.268Z,30.83
2019-01-21T11:50:01.809Z,29.47
2019-01-21T11:52:49.420Z,31.03
2019-01-21T11:55:56.642Z,32.63
2019-01-21T11:59:03.846Z,31.13
2019-01-21T12:02:11.075Z,32.13
2019-01-21T12:05:18.308Z,31.97
2019-01-21T12:08:25.526Z,30.30
2019-01-21T12:11:32.776Z,31.63
2019-01-21T12:14:39.982Z,31.33
2019-01-21T12:17:47.203Z,30.80
2019-01-21T12:20:54.683Z,31.20
2019-01-21T12:24:01.903Z,31.77
2019-01-21T12:27:09.138Z,31.73
2019-01-21T12:30:16.371Z,36.33
2019-01-21T12:33:23.590Z,30.90
2019-01-21T12:36:16.730Z,29.13
2019-01-21T12:39:10.116Z,30.13
2019-01-21T12:42:17.310Z,32.00
2019-01-21T12:45:24.530Z,32.17
2019-01-21T12:48:05.010Z,33.67
2019-01-21T12:50:45.522Z,27.97
2019-01-21T12:53:26.119Z,36.13
2019-01-21T12:56:23.970Z,47.07
2019-01-21T12:59:31.169Z,37.27
2019-01-21T13:02:22.857Z,34.37
2019-01-21T13:05:30.058Z,31.73
2019-01-21T13:08:37.311Z,28.80
2019-01-21T13:11:31.189Z,31.23
2019-01-21T13:14:38.446Z,30.60
2019-01-21T13:17:45.686Z,30.67
2019-01-21T13:20:52.913Z,32.20
2019-01-21T13:24:00.149Z,34.57
2019-01-21T13:27:07.354Z,33.07
2019-01-21T13:30:14.595Z,37.27
2019-01-21T13:33:21.794Z,32.40
2019-01-21T13:36:29.043Z,35.47
2019-01-21T13:39:36.238Z,38.00
2019-01-21T13:42:43.502Z,36.97
2019-01-21T13:45:50.702Z,36.70
2019-01-21T13:48:57.285Z,36.17
2019-01-21T13:52:04.488Z,31.47
2019-01-21T13:55:11.810Z,34.97
2019-01-21T13:58:05.119Z,33.70
2019-01-21T14:01:13.931Z,34.03
2019-01-21T14:04:21.129Z,36.37
2019-01-21T14:07:28.360Z,39.37
2019-01-21T14:10:35.586Z,38.10
2019-01-21T14:13:42.814Z,37.17
2019-01-21T14:16:50.022Z,37.20
2019-01-21T14:19:57.246Z,34.80
2019-01-21T14:23:04.450Z,40.87
2019-01-21T14:25:58.434Z,42.83
2019-01-21T14:29:05.635Z,36.27
2019-01-21T14:32:12.862Z,38.30
2019-01-21T14:35:20.070Z,37.13
2019-01-21T14:38:11.002Z,40.67
2019-01-21T14:41:18.205Z,37.90
2019-01-21T14:44:15.263Z,36.50
2019-01-21T14:47:22.503Z,38.67
2019-01-21T14:50:21.388Z,41.07
2019-01-21T14:53:28.616Z,38.80
2019-01-21T14:56:35.883Z,35.73
2019-01-21T14:59:28.816Z,35.83
2019-01-21T15:02:37.213Z,34.43
2019-01-21T15:05:44.493Z,36.63
2019-01-21T15:08:44.751Z,34.03
2019-01-21T15:11:52.033Z,33.83
2019-01-21T15:14:59.260Z,40.30
2019-01-21T15:18:06.487Z,38.03
2019-01-21T15:20:57.802Z,34.77
2019-01-21T15:24:06.378Z,34.57
2019-01-21T15:26:58.550Z,36.03
2019-01-21T15:29:49.433Z,34.93
2019-01-21T15:32:57.139Z,36.47
2019-01-21T15:36:04.451Z,31.97
2019-01-21T15:39:11.754Z,34.50
2019-01-21T15:42:06.389Z,36.20
2019-01-21T15:45:13.626Z,34.30
2019-01-21T15:48:20.942Z,36.87
2019-01-21T15:54:27.554Z,37.07
2019-01-21T15:57:34.934Z,37.17
2019-01-21T16:00:42.358Z,34.60
2019-01-21T16:03:49.715Z,35.77
2019-01-21T16:06:57.217Z,39.07
2019-01-21T16:10:04.614Z,39.30
2019-01-21T16:13:12.095Z,40.17
2019-01-21T16:16:19.633Z,41.17
2019-01-21T16:19:27.178Z,37.10
2019-01-21T16:22:22.127Z,42.27
2019-01-21T16:25:13.274Z,42.83
2019-01-21T16:28:11.943Z,44.63
2019-01-21T16:31:03.142Z,38.40
2019-01-21T16:34:10.521Z,43.90
2019-01-21T16:37:05.682Z,42.07
2019-01-21T16:40:13.518Z,41.87
2019-01-21T16:43:01.891Z,45.63
2019-01-21T16:45:50.108Z,44.03
2019-01-21T16:48:38.358Z,51.07
2019-01-21T16:51:26.492Z,50.23
2019-01-21T16:54:05.927Z,44.57
2019-01-21T16:56:54.323Z,42.73
2019-01-21T16:59:42.648Z,44.23
2019-01-21T17:02:30.914Z,52.00
2019-01-21T17:05:19.269Z,65.87
2019-01-21T17:08:07.285Z,68.50
2019-01-21T17:10:55.668Z,55.07
2019-01-21T17:13:45.007Z,51.47
2019-01-21T17:16:34.109Z,48.77
2019-01-21T17:19:22.077Z,52.20
2019-01-21T17:22:10.394Z,49.17
2019-01-21T17:24:58.314Z,50.07
2019-01-21T17:27:48.819Z,52.07
2019-01-21T17:30:36.725Z,49.27
2019-01-21T17:33:24.987Z,49.70
2019-01-21T17:36:12.894Z,50.13
2019-01-21T17:39:00.841Z,55.70
2019-01-21T17:41:48.774Z,50.60
2019-01-21T17:44:36.960Z,55.67
2019-01-21T17:47:24.868Z,52.00
2019-01-21T17:50:13.084Z,55.17
2019-01-21T17:52:52.498Z,59.00
2019-01-21T17:55:40.459Z,54.73
2019-01-21T17:58:28.381Z,57.23
2019-01-21T18:01:16.669Z,58.13
2019-01-21T18:04:04.578Z,54.53
2019-01-21T18:06:52.767Z,60.70
2019-01-21T18:09:40.676Z,65.47
2019-01-21T18:12:28.937Z,69.30
2019-01-21T18:15:16.855Z,70.23
2019-01-21T18:18:05.037Z,70.83
2019-01-21T18:20:52.950Z,67.47
2019-01-21T18:23:40.918Z,80.37
2019-01-21T18:26:28.843Z,98.67
2019-01-21T18:29:16.794Z,88.10
2019-01-21T18:32:04.730Z,84.07
2019-01-21T18:34:52.674Z,85.57
2019-01-21T18:37:40.603Z,83.43
2019-01-21T18:40:28.555Z,87.30
2019-01-21T18:43:16.480Z,85.90
2019-01-21T18:46:04.434Z,91.43
2019-01-21T18:48:52.358Z,81.60
2019-01-21T18:54:24.981Z,79.07
2019-01-21T18:57:12.950Z,85.07
2019-01-21T19:00:00.890Z,78.00
2019-01-21T19:02:48.894Z,79.43
2019-01-21T19:05:36.821Z,71.50
2019-01-21T19:08:24.774Z,75.03
2019-01-21T19:11:12.701Z,79.43
2019-01-21T19:14:00.846Z,75.30
2019-01-21T19:16:48.851Z,77.00
2019-01-21T19:19:36.805Z,78.43
2019-01-21T19:22:24.762Z,85.70
2019-01-21T19:25:13.071Z,74.17
2019-01-21T19:28:01.286Z,71.87
2019-01-21T19:30:49.258Z,73.47
2019-01-21T19:33:37.207Z,66.37
2019-01-21T19:36:25.174Z,71.57
2019-01-21T19:39:13.101Z,70.77
2019-01-21T19:42:01.335Z,74.37
2019-01-21T19:44:49.662Z,73.50
2019-01-21T19:47:37.704Z,71.90
2019-01-21T19:50:25.818Z,73.60
2019-01-21T19:56:19.984Z,80.03
2019-01-21T19:59:08.178Z,72.73
2019-01-21T20:01:56.126Z,78.00
2019-01-21T20:04:44.049Z,72.37
2019-01-21T20:07:32.237Z,78.80
2019-01-21T20:10:20.168Z,76.47
2019-01-21T20:13:08.173Z,79.70
2019-01-21T20:15:56.397Z,86.67
2019-01-21T20:18:45.129Z,81.63
2019-01-21T20:21:33.147Z,77.60
2019-01-21T20:24:21.466Z,75.60
2019-01-21T20:27:09.694Z,78.73
2019-01-21T20:29:57.773Z,75.30
2019-01-21T20:32:45.707Z,77.00
2019-01-21T20:35:33.977Z,77.03
2019-01-21T20:38:21.901Z,78.53
2019-01-21T20:44:03.486Z,86.70
2019-01-21T20:46:51.447Z,77.90
2019-01-21T20:49:39.399Z,75.93
2019-01-21T20:52:27.674Z,79.37
2019-01-21T20:55:15.869Z,74.77
2019-01-21T20:57:54.657Z,72.60
2019-01-21T21:00:42.582Z,76.53
2019-01-21T21:03:30.845Z,80.57
2019-01-21T21:06:18.804Z,72.63
2019-01-21T21:09:08.248Z,75.40
2019-01-21T21:11:56.169Z,83.57
2019-01-21T21:14:44.691Z,78.77
2019-01-21T21:17:32.601Z,76.80
2019-01-21T21:20:20.566Z,82.30
2019-01-21T21:23:08.489Z,79.30
2019-01-21T21:25:56.717Z,86.53
2019-01-21T21:28:44.970Z,89.57
2019-01-21T21:31:32.990Z,87.40
2019-01-21T21:34:21.242Z,83.87
2019-01-21T21:37:09.262Z,79.40
2019-01-21T21:39:57.715Z,76.77
2019-01-21T21:42:45.756Z,85.27
2019-01-21T21:45:33.682Z,85.03
2019-01-21T21:48:21.962Z,81.33
2019-01-21T21:51:10.050Z,84.50
2019-01-21T21:53:58.009Z,78.73
2019-01-21T21:56:45.938Z,83.30
2019-01-21T21:59:28.754Z,85.57
2019-01-21T22:02:09.226Z,79.73
2019-01-21T22:04:50.049Z,84.70
2019-01-21T22:07:29.106Z,93.83
2019-01-21T22:10:19.664Z,80.77
2019-01-21T22:13:07.799Z,89.10
2019-01-21T22:15:55.769Z,94.07
2019-01-21T22:18:43.697Z,86.50
2019-01-21T22:21:31.917Z,86.17
2019-01-21T22:24:19.846Z,80.57
2019-01-21T22:27:07.811Z,88.27
2019-01-21T22:29:55.734Z,82.73
2019-01-21T22:32:43.691Z,81.60
2019-01-21T22:35:31.623Z,82.70
2019-01-21T22:38:19.565Z,87.17
2019-01-21T22:41:07.494Z,97.53
2019-01-21T22:43:55.706Z,84.00
2019-01-21T22:46:43.640Z,84.40
2019-01-21T22:49:31.581Z,83.43
2019-01-21T22:52:19.512Z,83.73
2019-01-21T22:55:09.763Z,82.83
2019-01-21T22:57:57.766Z,76.10
